sensor_id;sensor_type;location;lat;lon;timestamp;pressure;altitude;pressure_sealevel;temperature;humidity
61506;BME280;47366;51.916;4.574;2023-04-10T00:01:33;102111.66;;;10.32;65.77
61506;BME280;47366;51.916;4.574;2023-04-10T00:04:03;102112.59;;;10.31;65.33
61506;BME280;47366;51.916;4.574;2023-04-10T00:06:30;102097.19;;;10.32;65.84
61506;BME280;47366;51.916;4.574;2023-04-10T00:08:56;102092.78;;;10.29;65.98
61506;BME280;47366;51.916;4.574;2023-04-10T00:11:22;102094.56;;;10.30;65.84
61506;BME280;47366;51.916;4.574;2023-04-10T00:13:48;102087.38;;;10.29;65.51
61506;BME280;47366;51.916;4.574;2023-04-10T00:16:13;102087.28;;;10.32;65.78
61506;BME280;47366;51.916;4.574;2023-04-10T00:18:39;102081.91;;;10.31;65.91
61506;BME280;47366;51.916;4.574;2023-04-10T00:21:05;102089.22;;;10.29;65.96
61506;BME280;47366;51.916;4.574;2023-04-10T00:23:30;102087.47;;;10.26;66.02
61506;BME280;47366;51.916;4.574;2023-04-10T00:25:59;102096.56;;;10.25;65.79
61506;BME280;47366;51.916;4.574;2023-04-10T00:28:25;102089.44;;;10.23;66.06
61506;BME280;47366;51.916;4.574;2023-04-10T00:30:50;102083.91;;;10.26;66.12
61506;BME280;47366;51.916;4.574;2023-04-10T00:33:15;102078.47;;;10.26;66.26
61506;BME280;47366;51.916;4.574;2023-04-10T00:35:41;102081.31;;;10.23;66.21
61506;BME280;47366;51.916;4.574;2023-04-10T00:38:06;102078.66;;;10.21;66.05
61506;BME280;47366;51.916;4.574;2023-04-10T00:40:32;102079.50;;;10.23;66.28
61506;BME280;47366;51.916;4.574;2023-04-10T00:42:57;102073.25;;;10.21;66.35
61506;BME280;47366;51.916;4.574;2023-04-10T00:45:23;102072.44;;;10.19;65.95
61506;BME280;47366;51.916;4.574;2023-04-10T00:47:48;102070.91;;;10.12;66.26
61506;BME280;47366;51.916;4.574;2023-04-10T00:50:14;102077.28;;;10.11;66.10
61506;BME280;47366;51.916;4.574;2023-04-10T00:52:39;102068.25;;;10.10;65.84
61506;BME280;47366;51.916;4.574;2023-04-10T00:55:05;102062.91;;;10.09;65.44
61506;BME280;47366;51.916;4.574;2023-04-10T00:57:32;102057.41;;;10.10;65.68
61506;BME280;47366;51.916;4.574;2023-04-10T00:59:57;102052.97;;;10.09;65.20
61506;BME280;47366;51.916;4.574;2023-04-10T01:02:23;102040.31;;;10.10;65.52
61506;BME280;47366;51.916;4.574;2023-04-10T01:04:49;102041.25;;;10.09;65.41
61506;BME280;47366;51.916;4.574;2023-04-10T01:07:21;102039.38;;;10.11;65.36
61506;BME280;47366;51.916;4.574;2023-04-10T01:20:13;102026.13;;;10.03;65.36
61506;BME280;47366;51.916;4.574;2023-04-10T01:22:44;102023.59;;;9.98;65.53
61506;BME280;47366;51.916;4.574;2023-04-10T01:30:34;102007.50;;;9.95;65.72
61506;BME280;47366;51.916;4.574;2023-04-10T01:33:00;102005.66;;;9.96;66.00
61506;BME280;47366;51.916;4.574;2023-04-10T01:35:28;102005.94;;;9.90;65.90
61506;BME280;47366;51.916;4.574;2023-04-10T01:37:56;102004.28;;;9.86;66.53
61506;BME280;47366;51.916;4.574;2023-04-10T01:40:25;102007.84;;;9.86;66.13
61506;BME280;47366;51.916;4.574;2023-04-10T01:42:54;102009.81;;;9.83;66.29
61506;BME280;47366;51.916;4.574;2023-04-10T01:45:23;102002.53;;;9.85;66.59
61506;BME280;47366;51.916;4.574;2023-04-10T01:47:50;101991.88;;;9.80;66.69
61506;BME280;47366;51.916;4.574;2023-04-10T01:50:16;101991.88;;;9.80;66.66
61506;BME280;47366;51.916;4.574;2023-04-10T01:52:43;101992.72;;;9.82;66.83
61506;BME280;47366;51.916;4.574;2023-04-10T01:55:09;101990.09;;;9.79;66.65
61506;BME280;47366;51.916;4.574;2023-04-10T01:57:35;101989.09;;;9.82;66.67
61506;BME280;47366;51.916;4.574;2023-04-10T02:00:03;101989.19;;;9.80;66.77
61506;BME280;47366;51.916;4.574;2023-04-10T02:02:30;101986.56;;;9.77;66.83
61506;BME280;47366;51.916;4.574;2023-04-10T02:04:56;101989.22;;;9.78;66.81
61506;BME280;47366;51.916;4.574;2023-04-10T02:07:56;101986.56;;;9.77;67.05
61506;BME280;47366;51.916;4.574;2023-04-10T02:10:29;101983.88;;;9.77;67.36
61506;BME280;47366;51.916;4.574;2023-04-10T02:13:00;101990.25;;;9.76;67.56
61506;BME280;47366;51.916;4.574;2023-04-10T02:15:30;101986.66;;;9.75;67.17
61506;BME280;47366;51.916;4.574;2023-04-10T02:17:57;101991.94;;;9.78;67.21
61506;BME280;47366;51.916;4.574;2023-04-10T02:20:24;101983.94;;;9.75;67.32
61506;BME280;47366;51.916;4.574;2023-04-10T02:22:50;101986.56;;;9.77;67.19
61506;BME280;47366;51.916;4.574;2023-04-10T02:25:17;101996.53;;;9.76;67.14
61506;BME280;47366;51.916;4.574;2023-04-10T02:27:43;101984.97;;;9.73;67.32
61506;BME280;47366;51.916;4.574;2023-04-10T02:30:09;101991.13;;;9.76;67.32
61506;BME280;47366;51.916;4.574;2023-04-10T02:32:35;101980.38;;;9.75;67.08
61506;BME280;47366;51.916;4.574;2023-04-10T02:35:01;101982.94;;;9.78;66.68
61506;BME280;47366;51.916;4.574;2023-04-10T02:37:27;101987.41;;;9.79;66.86
61506;BME280;47366;51.916;4.574;2023-04-10T02:39:52;101993.81;;;9.76;67.22
61506;BME280;47366;51.916;4.574;2023-04-10T02:42:21;101993.00;;;9.74;67.08
61506;BME280;47366;51.916;4.574;2023-04-10T02:44:47;101987.66;;;9.73;67.04
61506;BME280;47366;51.916;4.574;2023-04-10T02:47:12;102002.06;;;9.73;66.88
61506;BME280;47366;51.916;4.574;2023-04-10T02:49:37;102006.59;;;9.73;66.67
61506;BME280;47366;51.916;4.574;2023-04-10T02:52:03;101993.25;;;9.68;66.52
61506;BME280;47366;51.916;4.574;2023-04-10T02:54:28;102000.28;;;9.72;66.83
61506;BME280;47366;51.916;4.574;2023-04-10T02:56:58;101996.78;;;9.70;66.81
61506;BME280;47366;51.916;4.574;2023-04-10T02:59:23;101999.59;;;9.67;66.80
61506;BME280;47366;51.916;4.574;2023-04-10T03:01:50;102002.19;;;9.70;66.51
61506;BME280;47366;51.916;4.574;2023-04-10T03:04:16;101992.38;;;9.68;66.69
61506;BME280;47366;51.916;4.574;2023-04-10T03:06:42;101995.13;;;9.66;66.55
61506;BME280;47366;51.916;4.574;2023-04-10T03:09:07;101984.31;;;9.66;66.52
61506;BME280;47366;51.916;4.574;2023-04-10T03:11:32;101987.16;;;9.63;66.38
61506;BME280;47366;51.916;4.574;2023-04-10T03:13:58;101985.31;;;9.64;66.35
61506;BME280;47366;51.916;4.574;2023-04-10T03:16:23;101978.22;;;9.61;66.53
61506;BME280;47366;51.916;4.574;2023-04-10T03:18:49;101977.25;;;9.62;66.36
61506;BME280;47366;51.916;4.574;2023-04-10T03:21:14;101984.44;;;9.63;66.15
61506;BME280;47366;51.916;4.574;2023-04-10T03:23:40;101971.97;;;9.59;66.38
61506;BME280;47366;51.916;4.574;2023-04-10T03:26:05;101969.22;;;9.61;66.16
61506;BME280;47366;51.916;4.574;2023-04-10T03:28:30;101970.09;;;9.61;65.78
61506;BME280;47366;51.916;4.574;2023-04-10T03:30:57;101971.78;;;9.64;65.93
61506;BME280;47366;51.916;4.574;2023-04-10T03:33:23;101971.84;;;9.62;65.69
61506;BME280;47366;51.916;4.574;2023-04-10T03:35:48;101966.38;;;9.64;65.62
61506;BME280;47366;51.916;4.574;2023-04-10T03:38:14;101966.38;;;9.64;65.66
61506;BME280;47366;51.916;4.574;2023-04-10T03:40:39;101961.03;;;9.62;65.72
61506;BME280;47366;51.916;4.574;2023-04-10T03:43:04;101946.56;;;9.63;65.36
61506;BME280;47366;51.916;4.574;2023-04-10T03:45:30;101949.31;;;9.62;65.17
61506;BME280;47366;51.916;4.574;2023-04-10T03:47:55;101944.66;;;9.65;65.04
61506;BME280;47366;51.916;4.574;2023-04-10T03:50:21;101937.53;;;9.63;64.82
61506;BME280;47366;51.916;4.574;2023-04-10T03:52:46;101937.44;;;9.66;65.10
61506;BME280;47366;51.916;4.574;2023-04-10T03:55:14;101933.91;;;9.64;65.06
61506;BME280;47366;51.916;4.574;2023-04-10T03:57:43;101932.03;;;9.66;64.93
61506;BME280;47366;51.916;4.574;2023-04-10T04:00:09;101917.59;;;9.65;64.93
61506;BME280;47366;51.916;4.574;2023-04-10T04:02:35;101927.50;;;9.66;64.90
61506;BME280;47366;51.916;4.574;2023-04-10T04:05:00;101926.72;;;9.63;64.68
61506;BME280;47366;51.916;4.574;2023-04-10T04:07:26;101918.69;;;9.61;64.65
61506;BME280;47366;51.916;4.574;2023-04-10T04:09:51;101923.91;;;9.66;64.76
61506;BME280;47366;51.916;4.574;2023-04-10T04:12:16;101923.84;;;9.67;64.22
61506;BME280;47366;51.916;4.574;2023-04-10T04:14:42;101918.38;;;9.69;64.29
61506;BME280;47366;51.916;4.574;2023-04-10T04:17:08;101918.25;;;9.72;64.24
61506;BME280;47366;51.916;4.574;2023-04-10T04:19:34;101919.34;;;9.68;63.64
61506;BME280;47366;51.916;4.574;2023-04-10T04:22:00;101918.44;;;9.67;64.19
61506;BME280;47366;51.916;4.574;2023-04-10T04:24:25;101919.19;;;9.71;63.82
61506;BME280;47366;51.916;4.574;2023-04-10T04:26:50;101909.38;;;9.68;63.54
61506;BME280;47366;51.916;4.574;2023-04-10T04:29:16;101908.28;;;9.72;63.79
61506;BME280;47366;51.916;4.574;2023-04-10T04:31:41;101910.31;;;9.67;63.01
61506;BME280;47366;51.916;4.574;2023-04-10T04:34:06;101906.53;;;9.71;63.39
61506;BME280;47366;51.916;4.574;2023-04-10T04:36:32;101893.84;;;9.73;63.06
61506;BME280;47366;51.916;4.574;2023-04-10T04:38:57;101893.84;;;9.73;63.13
61506;BME280;47366;51.916;4.574;2023-04-10T04:41:22;101889.34;;;9.72;63.46
61506;BME280;47366;51.916;4.574;2023-04-10T04:43:47;101894.75;;;9.72;62.71
61506;BME280;47366;51.916;4.574;2023-04-10T04:46:13;101891.13;;;9.73;62.30
61506;BME280;47366;51.916;4.574;2023-04-10T04:48:38;101884.66;;;9.77;62.60
61506;BME280;47366;51.916;4.574;2023-04-10T04:51:07;101882.75;;;9.79;62.48
61506;BME280;47366;51.916;4.574;2023-04-10T04:53:32;101889.94;;;9.81;62.30
61506;BME280;47366;51.916;4.574;2023-04-10T04:55:57;101885.41;;;9.81;62.47
61506;BME280;47366;51.916;4.574;2023-04-10T04:58:23;101885.53;;;9.78;61.96
61506;BME280;47366;51.916;4.574;2023-04-10T05:00:50;101882.06;;;9.74;62.14
61506;BME280;47366;51.916;4.574;2023-04-10T05:03:15;101882.75;;;9.79;62.49
61506;BME280;47366;51.916;4.574;2023-04-10T05:05:41;101874.72;;;9.78;62.06
61506;BME280;47366;51.916;4.574;2023-04-10T05:08:07;101877.41;;;9.78;62.01
61506;BME280;47366;51.916;4.574;2023-04-10T05:10:32;101870.31;;;9.75;62.08
61506;BME280;47366;51.916;4.574;2023-04-10T05:12:57;101873.69;;;9.81;62.74
61506;BME280;47366;51.916;4.574;2023-04-10T05:15:23;101874.63;;;9.79;61.53
61506;BME280;47366;51.916;4.574;2023-04-10T05:17:48;101868.44;;;9.77;61.67
61506;BME280;47366;51.916;4.574;2023-04-10T05:20:15;101881.81;;;9.81;62.06
61506;BME280;47366;51.916;4.574;2023-04-10T05:22:41;101875.63;;;9.77;61.60
61506;BME280;47366;51.916;4.574;2023-04-10T05:25:06;101882.69;;;9.81;62.06
61506;BME280;47366;51.916;4.574;2023-04-10T05:27:31;101875.59;;;9.78;62.07
61506;BME280;47366;51.916;4.574;2023-04-10T05:29:57;101880.00;;;9.81;61.57
61506;BME280;47366;51.916;4.574;2023-04-10T05:32:22;101878.16;;;9.82;61.57
61506;BME280;47366;51.916;4.574;2023-04-10T05:34:47;101877.22;;;9.83;61.96
61506;BME280;47366;51.916;4.574;2023-04-10T05:37:12;101879.94;;;9.83;61.54
61506;BME280;47366;51.916;4.574;2023-04-10T05:39:38;101878.16;;;9.82;61.68
61506;BME280;47366;51.916;4.574;2023-04-10T05:42:03;101878.16;;;9.82;61.79
61506;BME280;47366;51.916;4.574;2023-04-10T05:44:29;101868.34;;;9.79;61.93
61506;BME280;47366;51.916;4.574;2023-04-10T05:46:55;101879.94;;;9.83;61.94
61506;BME280;47366;51.916;4.574;2023-04-10T05:49:20;101872.69;;;9.83;61.83
61506;BME280;47366;51.916;4.574;2023-04-10T05:51:45;101868.22;;;9.82;62.04
61506;BME280;47366;51.916;4.574;2023-04-10T05:54:14;101865.53;;;9.82;61.74
61506;BME280;47366;51.916;4.574;2023-04-10T05:56:40;101861.00;;;9.83;62.13
61506;BME280;47366;51.916;4.574;2023-04-10T05:59:05;101857.47;;;9.81;61.78
61506;BME280;47366;51.916;4.574;2023-04-10T06:01:31;101854.72;;;9.82;62.43
61506;BME280;47366;51.916;4.574;2023-04-10T06:03:56;101845.81;;;9.78;62.27
61506;BME280;47366;51.916;4.574;2023-04-10T06:06:21;101846.66;;;9.81;62.39
61506;BME280;47366;51.916;4.574;2023-04-10T06:08:50;101845.78;;;9.80;62.24
61506;BME280;47366;51.916;4.574;2023-04-10T06:11:15;101852.88;;;9.83;62.41
61506;BME280;47366;51.916;4.574;2023-04-10T06:13:40;101835.97;;;9.77;62.45
61506;BME280;47366;51.916;4.574;2023-04-10T06:16:06;101844.94;;;9.78;62.28
61506;BME280;47366;51.916;4.574;2023-04-10T06:18:32;101848.53;;;9.78;62.02
61506;BME280;47366;51.916;4.574;2023-04-10T06:20:57;101844.94;;;9.78;62.20
61506;BME280;47366;51.916;4.574;2023-04-10T06:23:26;101842.25;;;9.78;62.48
61506;BME280;47366;51.916;4.574;2023-04-10T06:25:53;101825.06;;;9.79;62.27
61506;BME280;47366;51.916;4.574;2023-04-10T06:28:18;101828.53;;;9.83;62.50
61506;BME280;47366;51.916;4.574;2023-04-10T06:30:43;101815.00;;;9.83;62.41
61506;BME280;47366;51.916;4.574;2023-04-10T06:33:09;101808.75;;;9.81;62.43
61506;BME280;47366;51.916;4.574;2023-04-10T06:35:35;101805.09;;;9.82;62.84
61506;BME280;47366;51.916;4.574;2023-04-10T06:38:00;101799.56;;;9.85;62.79
61506;BME280;47366;51.916;4.574;2023-04-10T06:40:25;101801.31;;;9.86;62.90
61506;BME280;47366;51.916;4.574;2023-04-10T06:42:53;101793.16;;;9.87;62.78
61506;BME280;47366;51.916;4.574;2023-04-10T06:45:18;101794.88;;;9.88;63.25
61506;BME280;47366;51.916;4.574;2023-04-10T06:47:45;101786.88;;;9.87;62.97
61506;BME280;47366;51.916;4.574;2023-04-10T06:50:10;101785.75;;;9.91;63.10
61506;BME280;47366;51.916;4.574;2023-04-10T06:52:35;101775.75;;;9.93;62.75
61506;BME280;47366;51.916;4.574;2023-04-10T06:55:00;101774.81;;;9.94;62.93
61506;BME280;47366;51.916;4.574;2023-04-10T06:57:26;101766.63;;;9.95;62.84
61506;BME280;47366;51.916;4.574;2023-04-10T06:59:52;101773.72;;;9.98;62.98
61506;BME280;47366;51.916;4.574;2023-04-10T07:02:18;101770.09;;;9.99;62.62
61506;BME280;47366;51.916;4.574;2023-04-10T07:04:43;101762.69;;;10.03;62.59
61506;BME280;47366;51.916;4.574;2023-04-10T07:07:08;101765.25;;;10.06;62.28
61506;BME280;47366;51.916;4.574;2023-04-10T07:09:36;101770.59;;;10.07;62.08
61506;BME280;47366;51.916;4.574;2023-04-10T07:12:02;101763.16;;;10.12;62.12
61506;BME280;47366;51.916;4.574;2023-04-10T07:14:28;101762.22;;;10.13;62.30
61506;BME280;47366;51.916;4.574;2023-04-10T07:16:53;101759.31;;;10.18;61.70
61506;BME280;47366;51.916;4.574;2023-04-10T07:19:19;101751.31;;;10.15;61.58
61506;BME280;47366;51.916;4.574;2023-04-10T07:21:45;101756.66;;;10.16;61.54
61506;BME280;47366;51.916;4.574;2023-04-10T07:24:15;101749.19;;;10.21;61.53
61506;BME280;47366;51.916;4.574;2023-04-10T07:26:40;101745.41;;;10.26;61.80
61506;BME280;47366;51.916;4.574;2023-04-10T07:29:05;101737.28;;;10.26;61.87
61506;BME280;47366;51.916;4.574;2023-04-10T07:31:31;101737.28;;;10.26;61.84
61506;BME280;47366;51.916;4.574;2023-04-10T07:33:56;101730.03;;;10.26;61.40
61506;BME280;47366;51.916;4.574;2023-04-10T07:36:21;101728.19;;;10.28;61.77
61506;BME280;47366;51.916;4.574;2023-04-10T07:38:46;101723.63;;;10.29;61.66
61506;BME280;47366;51.916;4.574;2023-04-10T07:41:12;101728.84;;;10.33;61.36
61506;BME280;47366;51.916;4.574;2023-04-10T07:43:38;101726.13;;;10.33;61.22
61506;BME280;47366;51.916;4.574;2023-04-10T07:46:03;101728.78;;;10.35;61.09
61506;BME280;47366;51.916;4.574;2023-04-10T07:48:29;101715.91;;;10.40;61.06
61506;BME280;47366;51.916;4.574;2023-04-10T07:50:54;101707.78;;;10.40;60.86
61506;BME280;47366;51.916;4.574;2023-04-10T07:53:20;101702.25;;;10.41;60.49
61506;BME280;47366;51.916;4.574;2023-04-10T07:55:45;101700.25;;;10.47;60.85
61506;BME280;47366;51.916;4.574;2023-04-10T07:58:14;101700.09;;;10.50;60.82
61506;BME280;47366;51.916;4.574;2023-04-10T08:00:40;101698.34;;;10.49;60.51
61506;BME280;47366;51.916;4.574;2023-04-10T08:03:05;101689.91;;;10.55;60.68
61506;BME280;47366;51.916;4.574;2023-04-10T08:05:31;101679.81;;;10.58;60.86
61506;BME280;47366;51.916;4.574;2023-04-10T08:07:56;101681.50;;;10.61;61.16
61506;BME280;47366;51.916;4.574;2023-04-10T08:10:22;101666.34;;;10.57;60.53
61506;BME280;47366;51.916;4.574;2023-04-10T08:12:47;101667.94;;;10.61;61.01
61506;BME280;47366;51.916;4.574;2023-04-10T08:15:13;101674.72;;;10.70;60.94
61506;BME280;47366;51.916;4.574;2023-04-10T08:17:38;101668.38;;;10.71;60.92
61506;BME280;47366;51.916;4.574;2023-04-10T08:20:04;101660.25;;;10.71;59.84
61506;BME280;47366;51.916;4.574;2023-04-10T08:22:30;101665.22;;;10.80;60.25
61506;BME280;47366;51.916;4.574;2023-04-10T08:24:55;101662.50;;;10.80;60.13
61506;BME280;47366;51.916;4.574;2023-04-10T08:27:21;101659.63;;;10.83;60.23
61506;BME280;47366;51.916;4.574;2023-04-10T08:29:46;101660.34;;;10.87;60.17
61506;BME280;47366;51.916;4.574;2023-04-10T08:32:12;101657.50;;;10.90;60.24
61506;BME280;47366;51.916;4.574;2023-04-10T08:34:37;101657.41;;;10.91;60.23
61506;BME280;47366;51.916;4.574;2023-04-10T08:37:06;101662.38;;;11.00;60.06
61506;BME280;47366;51.916;4.574;2023-04-10T08:39:34;101649.78;;;10.99;59.84
61506;BME280;47366;51.916;4.574;2023-04-10T08:42:04;101649.63;;;11.02;59.86
61506;BME280;47366;51.916;4.574;2023-04-10T08:44:30;101642.13;;;11.08;59.89
61506;BME280;47366;51.916;4.574;2023-04-10T08:46:57;101632.91;;;11.12;59.81
61506;BME280;47366;51.916;4.574;2023-04-10T08:49:28;101631.44;;;11.22;59.74
61506;BME280;47366;51.916;4.574;2023-04-10T08:51:57;101623.00;;;11.28;59.35
61506;BME280;47366;51.916;4.574;2023-04-10T08:54:26;101624.63;;;11.32;59.38
61506;BME280;47366;51.916;4.574;2023-04-10T08:56:53;101616.22;;;11.37;59.67
61506;BME280;47366;51.916;4.574;2023-04-10T08:59:19;101615.97;;;11.41;58.91
61506;BME280;47366;51.916;4.574;2023-04-10T09:01:45;101615.72;;;11.46;59.52
61506;BME280;47366;51.916;4.574;2023-04-10T09:04:13;101607.53;;;11.47;59.65
61506;BME280;47366;51.916;4.574;2023-04-10T09:06:40;101608.22;;;11.51;59.26
61506;BME280;47366;51.916;4.574;2023-04-10T09:09:06;101607.53;;;11.47;58.81
61506;BME280;47366;51.916;4.574;2023-04-10T09:14:26;101599.94;;;11.54;58.42
61506;BME280;47366;51.916;4.574;2023-04-10T09:16:53;101597.50;;;11.65;59.32
61506;BME280;47366;51.916;4.574;2023-04-10T09:19:31;101598.53;;;11.80;59.13
61506;BME280;47366;51.916;4.574;2023-04-10T09:21:57;101599.66;;;11.76;58.19
61506;BME280;47366;51.916;4.574;2023-04-10T09:24:23;101590.44;;;11.79;58.90
61506;BME280;47366;51.916;4.574;2023-04-10T09:26:49;101582.06;;;11.83;58.49
61506;BME280;47366;51.916;4.574;2023-04-10T09:29:14;101581.25;;;11.81;58.86
61506;BME280;47366;51.916;4.574;2023-04-10T09:31:41;101583.19;;;11.79;58.96
61506;BME280;47366;51.916;4.574;2023-04-10T09:36:38;101572.31;;;11.79;58.80
61506;BME280;47366;51.916;4.574;2023-04-10T09:39:05;101567.63;;;11.83;58.84
61506;BME280;47366;51.916;4.574;2023-04-10T09:41:31;101574.50;;;11.90;59.02
61506;BME280;47366;51.916;4.574;2023-04-10T09:44:08;101554.63;;;11.89;58.52
61506;BME280;47366;51.916;4.574;2023-04-10T09:46:34;101563.19;;;11.98;58.79
61506;BME280;47366;51.916;4.574;2023-04-10T09:49:00;101561.91;;;12.05;58.82
61506;BME280;47366;51.916;4.574;2023-04-10T09:51:33;101551.03;;;12.05;58.38
61506;BME280;47366;51.916;4.574;2023-04-10T09:53:59;101555.94;;;12.14;58.27
61506;BME280;47366;51.916;4.574;2023-04-10T09:56:25;101550.31;;;12.17;58.15
61506;BME280;47366;51.916;4.574;2023-04-10T09:58:58;101544.56;;;12.23;58.50
61506;BME280;47366;51.916;4.574;2023-04-10T10:01:25;101528.34;;;12.22;58.16
61506;BME280;47366;51.916;4.574;2023-04-10T10:03:54;101527.88;;;12.29;58.72
61506;BME280;47366;51.916;4.574;2023-04-10T10:06:21;101536.03;;;12.45;58.67
61506;BME280;47366;51.916;4.574;2023-04-10T10:08:46;101527.00;;;12.45;57.52
61506;BME280;47366;51.916;4.574;2023-04-10T10:11:16;101525.31;;;12.58;57.70
61506;BME280;47366;51.916;4.574;2023-04-10T10:13:46;101519.66;;;12.77;57.24
61506;BME280;47366;51.916;4.574;2023-04-10T10:16:22;101513.97;;;12.96;57.12
61506;BME280;47366;51.916;4.574;2023-04-10T10:21:15;101509.03;;;13.33;56.48
61506;BME280;47366;51.916;4.574;2023-04-10T10:23:43;101505.75;;;13.56;56.00
61506;BME280;47366;51.916;4.574;2023-04-10T10:26:09;101491.34;;;13.69;55.01
61506;BME280;47366;51.916;4.574;2023-04-10T10:28:36;101487.84;;;13.67;55.77
61506;BME280;47366;51.916;4.574;2023-04-10T10:31:02;101496.00;;;13.67;55.33
61506;BME280;47366;51.916;4.574;2023-04-10T10:33:29;101479.47;;;13.70;55.91
61506;BME280;47366;51.916;4.574;2023-04-10T10:36:01;101478.59;;;13.69;56.09
61506;BME280;47366;51.916;4.574;2023-04-10T10:38:27;101473.94;;;13.71;55.16
61506;BME280;47366;51.916;4.574;2023-04-10T10:41:11;101461.09;;;13.73;55.34
61506;BME280;47366;51.916;4.574;2023-04-10T10:43:52;101453.38;;;13.94;55.33
61506;BME280;47366;51.916;4.574;2023-04-10T10:48:57;101442.63;;;14.33;54.91
61506;BME280;47366;51.916;4.574;2023-04-10T10:51:23;101430.31;;;14.40;54.16
61506;BME280;47366;51.916;4.574;2023-04-10T10:53:48;101419.28;;;14.29;53.87
61506;BME280;47366;51.916;4.574;2023-04-10T10:58:49;101415.72;;;14.41;53.55
61506;BME280;47366;51.916;4.574;2023-04-10T11:01:15;101414.94;;;14.66;53.76
61506;BME280;47366;51.916;4.574;2023-04-10T11:03:41;101411.63;;;14.61;53.72
61506;BME280;47366;51.916;4.574;2023-04-10T11:06:10;101403.09;;;14.53;53.50
61506;BME280;47366;51.916;4.574;2023-04-10T11:08:46;101404.50;;;14.45;53.42
61506;BME280;47366;51.916;4.574;2023-04-10T11:11:19;101399.50;;;14.52;53.99
61506;BME280;47366;51.916;4.574;2023-04-10T11:19:04;101386.59;;;14.41;54.04
61506;BME280;47366;51.916;4.574;2023-04-10T11:21:30;101382.03;;;14.42;54.65
61506;BME280;47366;51.916;4.574;2023-04-10T11:29:03;101374.72;;;14.42;54.58
61506;BME280;47366;51.916;4.574;2023-04-10T11:31:29;101365.47;;;14.45;55.05
61506;BME280;47366;51.916;4.574;2023-04-10T11:36:22;101365.00;;;14.38;55.12
61506;BME280;47366;51.916;4.574;2023-04-10T11:38:59;101357.81;;;14.37;55.78
61506;BME280;47366;51.916;4.574;2023-04-10T11:41:29;101348.09;;;14.33;55.52
61506;BME280;47366;51.916;4.574;2023-04-10T11:43:55;101337.75;;;14.26;55.38
61506;BME280;47366;51.916;4.574;2023-04-10T11:46:21;101334.25;;;14.23;56.02
61506;BME280;47366;51.916;4.574;2023-04-10T11:48:47;101322.56;;;14.21;56.32
61506;BME280;47366;51.916;4.574;2023-04-10T11:51:16;101319.19;;;14.18;56.14
61506;BME280;47366;51.916;4.574;2023-04-10T11:53:41;101315.59;;;14.17;56.12
61506;BME280;47366;51.916;4.574;2023-04-10T11:56:17;101320.94;;;14.19;56.21
61506;BME280;47366;51.916;4.574;2023-04-10T11:58:43;101310.03;;;14.19;56.50
61506;BME280;47366;51.916;4.574;2023-04-10T12:01:09;101311.00;;;14.18;56.48
61506;BME280;47366;51.916;4.574;2023-04-10T12:03:42;101312.00;;;14.17;56.89
61506;BME280;47366;51.916;4.574;2023-04-10T12:06:12;101303.28;;;14.12;56.81
61506;BME280;47366;51.916;4.574;2023-04-10T12:08:43;101306.78;;;14.14;56.85
61506;BME280;47366;51.916;4.574;2023-04-10T12:11:23;101296.66;;;14.16;56.61
61506;BME280;47366;51.916;4.574;2023-04-10T12:13:55;101297.59;;;14.15;56.88
61506;BME280;47366;51.916;4.574;2023-04-10T12:16:21;101284.97;;;14.14;57.01
61506;BME280;47366;51.916;4.574;2023-04-10T12:18:48;101298.59;;;14.14;57.29
61506;BME280;47366;51.916;4.574;2023-04-10T12:21:13;101297.81;;;14.12;57.47
61506;BME280;47366;51.916;4.574;2023-04-10T12:23:40;101296.84;;;14.13;57.73
61506;BME280;47366;51.916;4.574;2023-04-10T12:26:11;101297.81;;;14.12;57.75
61506;BME280;47366;51.916;4.574;2023-04-10T12:28:38;101294.44;;;14.08;57.93
61506;BME280;47366;51.916;4.574;2023-04-10T12:31:04;101291.06;;;14.05;58.47
61506;BME280;47366;51.916;4.574;2023-04-10T12:33:30;101292.25;;;14.00;58.19
61506;BME280;47366;51.916;4.574;2023-04-10T12:35:56;101278.53;;;14.02;58.45
61506;BME280;47366;51.916;4.574;2023-04-10T12:38:42;101287.56;;;14.02;59.02
61506;BME280;47366;51.916;4.574;2023-04-10T12:41:10;101289.72;;;13.97;59.95
61506;BME280;47366;51.916;4.574;2023-04-10T12:43:36;101272.94;;;13.91;61.58
61506;BME280;47366;51.916;4.574;2023-04-10T12:46:03;101276.28;;;13.81;61.42
61506;BME280;47366;51.916;4.574;2023-04-10T12:48:29;101267.88;;;13.72;61.82
61506;BME280;47366;51.916;4.574;2023-04-10T12:50:54;101267.41;;;13.65;63.45
61506;BME280;47366;51.916;4.574;2023-04-10T12:53:20;101248.78;;;13.59;63.30
61506;BME280;47366;51.916;4.574;2023-04-10T12:58:22;101233.09;;;13.50;64.84
61506;BME280;47366;51.916;4.574;2023-04-10T13:00:53;101234.25;;;13.46;66.45
61506;BME280;47366;51.916;4.574;2023-04-10T13:03:19;101229.25;;;13.40;66.67
61506;BME280;47366;51.916;4.574;2023-04-10T13:05:45;101233.66;;;13.28;66.43
61506;BME280;47366;51.916;4.574;2023-04-10T13:08:11;101230.53;;;13.20;67.73
61506;BME280;47366;51.916;4.574;2023-04-10T13:10:36;101213.28;;;13.06;69.17
61506;BME280;47366;51.916;4.574;2023-04-10T13:13:03;101212.31;;;13.07;69.32
61506;BME280;47366;51.916;4.574;2023-04-10T13:15:28;101205.13;;;13.06;70.07
61506;BME280;47366;51.916;4.574;2023-04-10T13:17:54;101207.09;;;13.04;70.24
61506;BME280;47366;51.916;4.574;2023-04-10T13:20:20;101209.88;;;13.03;69.20
61506;BME280;47366;51.916;4.574;2023-04-10T13:22:46;101197.38;;;13.00;70.19
61506;BME280;47366;51.916;4.574;2023-04-10T13:25:11;101193.78;;;13.00;71.89
61506;BME280;47366;51.916;4.574;2023-04-10T13:27:37;101182.22;;;12.96;71.47
61506;BME280;47366;51.916;4.574;2023-04-10T13:30:02;101182.22;;;12.96;72.08
61506;BME280;47366;51.916;4.574;2023-04-10T13:32:28;101187.88;;;12.93;72.46
61506;BME280;47366;51.916;4.574;2023-04-10T13:34:53;101196.13;;;12.91;72.60
61506;BME280;47366;51.916;4.574;2023-04-10T13:37:19;101186.31;;;12.89;73.32